Previous Day
Next Day
Current Day
SHEF ID: NRCO2 Canadian River at Norman, OK
STATION TYPE:
STAGE RIV-FLOW BAT-LOAD
ft cfs volt
Ccp-Rev Ccp-Rev Ccp-Rev
(US/Central)
04/17 00:00 87.00 207 12.41
04/17 01:00 87.00 207 12.41
04/17 02:00 87.00 207 12.41
04/17 03:00 86.99 203 12.33
04/17 04:00 87.00 207 12.33
04/17 05:00 86.99 203 12.33
04/17 06:00 87.00 207 12.33
04/17 07:00 87.00 207 12.33
04/17 08:00 87.01 211 12.33
04/17 09:00 87.01 211 12.33
04/17 10:00 87.00 207 12.65
04/17 11:00 86.98 199 13.21
04/17 12:00 86.99 203 ----
04/17 13:00 87.00 207 13.76
04/17 14:00 86.97 195 13.84
04/17 15:00 86.98 199 13.53
04/17 16:00 86.99 203 13.44
04/17 17:00 86.99 203 13.37
04/17 18:00 86.98 199 13.29
04/17 19:00 86.99 203 13.21
04/17 20:00 87.00 207 12.89
04/17 21:00 87.00 207 12.65
04/17 22:00 87.00 207 12.57
04/17 23:00 86.99 203 12.57